sensor_id;sensor_type;location;lat;lon;timestamp;P1;durP1;ratioP1;P2;durP2;ratioP2
9729;SDS011;4904;49.152;11.004;2023-10-31T00:00:09;1.45;;;1.38;;
9729;SDS011;4904;49.152;11.004;2023-10-31T00:02:37;1.40;;;1.30;;
9729;SDS011;4904;49.152;11.004;2023-10-31T00:05:04;1.85;;;1.17;;
9729;SDS011;4904;49.152;11.004;2023-10-31T00:07:32;1.52;;;1.42;;
9729;SDS011;4904;49.152;11.004;2023-10-31T00:09:59;1.20;;;1.10;;
9729;SDS011;4904;49.152;11.004;2023-10-31T00:12:26;1.20;;;1.17;;
9729;SDS011;4904;49.152;11.004;2023-10-31T00:14:53;1.50;;;1.30;;
9729;SDS011;4904;49.152;11.004;2023-10-31T00:17:20;1.45;;;1.35;;
9729;SDS011;4904;49.152;11.004;2023-10-31T00:19:47;3.35;;;1.17;;
9729;SDS011;4904;49.152;11.004;2023-10-31T00:22:14;1.42;;;1.30;;
9729;SDS011;4904;49.152;11.004;2023-10-31T00:24:42;1.40;;;1.30;;
9729;SDS011;4904;49.152;11.004;2023-10-31T00:27:09;1.77;;;1.20;;
9729;SDS011;4904;49.152;11.004;2023-10-31T00:29:36;1.48;;;1.38;;
9729;SDS011;4904;49.152;11.004;2023-10-31T00:32:03;2.15;;;1.20;;
9729;SDS011;4904;49.152;11.004;2023-10-31T00:34:30;1.30;;;1.20;;
9729;SDS011;4904;49.152;11.004;2023-10-31T00:36:57;1.75;;;1.40;;
9729;SDS011;4904;49.152;11.004;2023-10-31T00:39:24;1.45;;;1.30;;
9729;SDS011;4904;49.152;11.004;2023-10-31T00:41:52;1.50;;;1.40;;
9729;SDS011;4904;49.152;11.004;2023-10-31T00:44:19;1.40;;;1.30;;
9729;SDS011;4904;49.152;11.004;2023-10-31T00:46:46;1.60;;;1.30;;
9729;SDS011;4904;49.152;11.004;2023-10-31T00:49:13;1.77;;;1.25;;
9729;SDS011;4904;49.152;11.004;2023-10-31T00:51:40;1.50;;;1.40;;
9729;SDS011;4904;49.152;11.004;2023-10-31T00:54:07;1.58;;;1.48;;
9729;SDS011;4904;49.152;11.004;2023-10-31T00:56:34;2.28;;;1.55;;
9729;SDS011;4904;49.152;11.004;2023-10-31T00:59:02;1.77;;;1.67;;
9729;SDS011;4904;49.152;11.004;2023-10-31T01:01:29;1.33;;;1.27;;
9729;SDS011;4904;49.152;11.004;2023-10-31T01:03:56;1.70;;;1.60;;
9729;SDS011;4904;49.152;11.004;2023-10-31T01:06:23;1.75;;;1.63;;
9729;SDS011;4904;49.152;11.004;2023-10-31T01:08:49;2.25;;;1.60;;
9729;SDS011;4904;49.152;11.004;2023-10-31T01:11:16;1.83;;;1.73;;
9729;SDS011;4904;49.152;11.004;2023-10-31T01:13:43;2.53;;;1.70;;
9729;SDS011;4904;49.152;11.004;2023-10-31T01:16:12;1.90;;;1.80;;
9729;SDS011;4904;49.152;11.004;2023-10-31T01:18:39;1.90;;;1.80;;
9729;SDS011;4904;49.152;11.004;2023-10-31T01:21:05;3.85;;;1.80;;
9729;SDS011;4904;49.152;11.004;2023-10-31T01:23:35;1.83;;;1.73;;
9729;SDS011;4904;49.152;11.004;2023-10-31T01:26:02;1.90;;;1.80;;
9729;SDS011;4904;49.152;11.004;2023-10-31T01:28:29;1.95;;;1.77;;
9729;SDS011;4904;49.152;11.004;2023-10-31T01:30:56;2.00;;;1.80;;
9729;SDS011;4904;49.152;11.004;2023-10-31T01:33:24;2.38;;;1.85;;
9729;SDS011;4904;49.152;11.004;2023-10-31T01:35:51;1.60;;;1.50;;
9729;SDS011;4904;49.152;11.004;2023-10-31T01:38:18;1.73;;;1.63;;
9729;SDS011;4904;49.152;11.004;2023-10-31T01:40:48;1.70;;;1.60;;
9729;SDS011;4904;49.152;11.004;2023-10-31T01:43:28;2.08;;;1.42;;
9729;SDS011;4904;49.152;11.004;2023-10-31T01:45:56;2.00;;;1.30;;
9729;SDS011;4904;49.152;11.004;2023-10-31T01:48:24;1.48;;;1.20;;
9729;SDS011;4904;49.152;11.004;2023-10-31T01:50:53;1.50;;;1.40;;
9729;SDS011;4904;49.152;11.004;2023-10-31T01:53:21;2.20;;;1.20;;
9729;SDS011;4904;49.152;11.004;2023-10-31T01:55:49;2.67;;;1.10;;
9729;SDS011;4904;49.152;11.004;2023-10-31T01:58:17;1.25;;;1.20;;
9729;SDS011;4904;49.152;11.004;2023-10-31T02:00:46;0.95;;;0.95;;
9729;SDS011;4904;49.152;11.004;2023-10-31T02:03:13;0.73;;;0.70;;
9729;SDS011;4904;49.152;11.004;2023-10-31T02:05:42;1.30;;;0.90;;
9729;SDS011;4904;49.152;11.004;2023-10-31T02:08:09;1.15;;;0.98;;
9729;SDS011;4904;49.152;11.004;2023-10-31T02:10:36;0.80;;;0.80;;
9729;SDS011;4904;49.152;11.004;2023-10-31T02:13:09;0.80;;;0.80;;
9729;SDS011;4904;49.152;11.004;2023-10-31T02:15:37;1.00;;;1.00;;
9729;SDS011;4904;49.152;11.004;2023-10-31T02:18:04;0.73;;;0.73;;
9729;SDS011;4904;49.152;11.004;2023-10-31T02:20:32;0.73;;;0.60;;
9729;SDS011;4904;49.152;11.004;2023-10-31T02:23:00;1.17;;;0.80;;
9729;SDS011;4904;49.152;11.004;2023-10-31T02:25:27;0.70;;;0.70;;
9729;SDS011;4904;49.152;11.004;2023-10-31T02:27:54;0.80;;;0.80;;
9729;SDS011;4904;49.152;11.004;2023-10-31T02:30:21;3.33;;;0.77;;
9729;SDS011;4904;49.152;11.004;2023-10-31T02:32:48;0.70;;;0.70;;
9729;SDS011;4904;49.152;11.004;2023-10-31T02:35:16;0.90;;;0.90;;
9729;SDS011;4904;49.152;11.004;2023-10-31T02:37:44;0.70;;;0.70;;
9729;SDS011;4904;49.152;11.004;2023-10-31T02:40:12;0.60;;;0.60;;
9729;SDS011;4904;49.152;11.004;2023-10-31T02:42:39;2.15;;;0.88;;
9729;SDS011;4904;49.152;11.004;2023-10-31T02:45:07;1.65;;;0.90;;
9729;SDS011;4904;49.152;11.004;2023-10-31T02:47:34;0.70;;;0.70;;
9729;SDS011;4904;49.152;11.004;2023-10-31T02:50:01;2.05;;;0.70;;
9729;SDS011;4904;49.152;11.004;2023-10-31T02:52:28;1.45;;;0.70;;
9729;SDS011;4904;49.152;11.004;2023-10-31T02:54:54;1.38;;;0.77;;
9729;SDS011;4904;49.152;11.004;2023-10-31T02:57:23;0.85;;;0.82;;
9729;SDS011;4904;49.152;11.004;2023-10-31T02:59:49;0.85;;;0.85;;
9729;SDS011;4904;49.152;11.004;2023-10-31T03:02:16;1.00;;;1.00;;
9729;SDS011;4904;49.152;11.004;2023-10-31T03:04:43;0.93;;;0.70;;
9729;SDS011;4904;49.152;11.004;2023-10-31T03:07:10;0.80;;;0.80;;
9729;SDS011;4904;49.152;11.004;2023-10-31T03:09:37;0.85;;;0.85;;
9729;SDS011;4904;49.152;11.004;2023-10-31T03:12:04;0.80;;;0.80;;
9729;SDS011;4904;49.152;11.004;2023-10-31T03:14:33;0.98;;;0.98;;
9729;SDS011;4904;49.152;11.004;2023-10-31T03:16:59;1.50;;;0.90;;
9729;SDS011;4904;49.152;11.004;2023-10-31T03:19:26;0.88;;;0.85;;
9729;SDS011;4904;49.152;11.004;2023-10-31T03:21:53;5.20;;;0.93;;
9729;SDS011;4904;49.152;11.004;2023-10-31T03:24:20;0.70;;;0.70;;
9729;SDS011;4904;49.152;11.004;2023-10-31T03:26:47;1.00;;;1.00;;
9729;SDS011;4904;49.152;11.004;2023-10-31T03:29:14;1.92;;;0.70;;
9729;SDS011;4904;49.152;11.004;2023-10-31T03:31:42;0.98;;;0.90;;
9729;SDS011;4904;49.152;11.004;2023-10-31T03:34:09;1.98;;;0.73;;
9729;SDS011;4904;49.152;11.004;2023-10-31T03:36:36;1.30;;;0.63;;
9729;SDS011;4904;49.152;11.004;2023-10-31T03:39:03;0.80;;;0.80;;
9729;SDS011;4904;49.152;11.004;2023-10-31T03:41:30;1.45;;;0.75;;
9729;SDS011;4904;49.152;11.004;2023-10-31T03:43:56;1.35;;;0.90;;
9729;SDS011;4904;49.152;11.004;2023-10-31T03:46:23;1.33;;;0.70;;
9729;SDS011;4904;49.152;11.004;2023-10-31T03:48:52;1.58;;;1.00;;
9729;SDS011;4904;49.152;11.004;2023-10-31T03:51:18;1.08;;;1.08;;
9729;SDS011;4904;49.152;11.004;2023-10-31T03:53:45;2.20;;;0.93;;
9729;SDS011;4904;49.152;11.004;2023-10-31T03:56:12;1.00;;;0.90;;
9729;SDS011;4904;49.152;11.004;2023-10-31T03:58:40;1.15;;;1.05;;
9729;SDS011;4904;49.152;11.004;2023-10-31T04:01:08;1.13;;;0.98;;
9729;SDS011;4904;49.152;11.004;2023-10-31T04:03:35;1.08;;;0.98;;
9729;SDS011;4904;49.152;11.004;2023-10-31T04:06:04;1.00;;;1.00;;
9729;SDS011;4904;49.152;11.004;2023-10-31T04:08:31;1.48;;;1.02;;
9729;SDS011;4904;49.152;11.004;2023-10-31T04:10:57;1.00;;;0.90;;
9729;SDS011;4904;49.152;11.004;2023-10-31T04:13:24;1.67;;;0.93;;
9729;SDS011;4904;49.152;11.004;2023-10-31T04:15:51;0.95;;;0.95;;
9729;SDS011;4904;49.152;11.004;2023-10-31T04:18:18;1.58;;;1.00;;
9729;SDS011;4904;49.152;11.004;2023-10-31T04:20:45;1.05;;;1.05;;
9729;SDS011;4904;49.152;11.004;2023-10-31T04:23:13;1.00;;;0.88;;
9729;SDS011;4904;49.152;11.004;2023-10-31T04:25:40;1.30;;;1.20;;
9729;SDS011;4904;49.152;11.004;2023-10-31T04:28:07;1.05;;;0.98;;
9729;SDS011;4904;49.152;11.004;2023-10-31T04:30:34;0.80;;;0.80;;
9729;SDS011;4904;49.152;11.004;2023-10-31T04:33:01;1.00;;;0.95;;
9729;SDS011;4904;49.152;11.004;2023-10-31T04:35:28;2.55;;;1.17;;
9729;SDS011;4904;49.152;11.004;2023-10-31T04:37:55;0.90;;;0.90;;
9729;SDS011;4904;49.152;11.004;2023-10-31T04:40:24;1.00;;;1.00;;
9729;SDS011;4904;49.152;11.004;2023-10-31T04:42:50;2.63;;;0.93;;
9729;SDS011;4904;49.152;11.004;2023-10-31T04:45:17;1.00;;;0.90;;
9729;SDS011;4904;49.152;11.004;2023-10-31T04:47:44;1.60;;;0.90;;
9729;SDS011;4904;49.152;11.004;2023-10-31T04:50:10;1.48;;;0.98;;
9729;SDS011;4904;49.152;11.004;2023-10-31T04:52:37;1.63;;;1.17;;
9729;SDS011;4904;49.152;11.004;2023-10-31T04:55:04;1.23;;;0.90;;
9729;SDS011;4904;49.152;11.004;2023-10-31T04:57:33;1.42;;;1.20;;
9729;SDS011;4904;49.152;11.004;2023-10-31T05:00:00;1.88;;;1.00;;
9729;SDS011;4904;49.152;11.004;2023-10-31T05:02:28;1.45;;;1.10;;
9729;SDS011;4904;49.152;11.004;2023-10-31T05:04:55;1.98;;;0.85;;
9729;SDS011;4904;49.152;11.004;2023-10-31T05:07:23;2.47;;;0.95;;
9729;SDS011;4904;49.152;11.004;2023-10-31T05:09:50;3.25;;;1.08;;
9729;SDS011;4904;49.152;11.004;2023-10-31T05:12:17;2.28;;;1.02;;
9729;SDS011;4904;49.152;11.004;2023-10-31T05:14:45;1.40;;;1.10;;
9729;SDS011;4904;49.152;11.004;2023-10-31T05:17:12;1.10;;;1.10;;
9729;SDS011;4904;49.152;11.004;2023-10-31T05:19:39;2.20;;;1.08;;
9729;SDS011;4904;49.152;11.004;2023-10-31T05:22:05;1.52;;;1.42;;
9729;SDS011;4904;49.152;11.004;2023-10-31T05:24:32;1.30;;;1.00;;
9729;SDS011;4904;49.152;11.004;2023-10-31T05:26:59;1.27;;;1.08;;
9729;SDS011;4904;49.152;11.004;2023-10-31T05:29:26;2.70;;;0.90;;
9729;SDS011;4904;49.152;11.004;2023-10-31T05:31:54;2.90;;;1.10;;
9729;SDS011;4904;49.152;11.004;2023-10-31T05:34:21;2.25;;;1.15;;
9729;SDS011;4904;49.152;11.004;2023-10-31T05:36:48;1.10;;;0.82;;
9729;SDS011;4904;49.152;11.004;2023-10-31T05:39:15;1.67;;;0.90;;
9729;SDS011;4904;49.152;11.004;2023-10-31T05:41:41;0.75;;;0.75;;
9729;SDS011;4904;49.152;11.004;2023-10-31T05:44:08;2.38;;;0.95;;
9729;SDS011;4904;49.152;11.004;2023-10-31T05:46:37;0.70;;;0.70;;
9729;SDS011;4904;49.152;11.004;2023-10-31T05:49:07;0.77;;;0.77;;
9729;SDS011;4904;49.152;11.004;2023-10-31T05:51:35;2.33;;;1.27;;
9729;SDS011;4904;49.152;11.004;2023-10-31T05:54:02;1.25;;;1.00;;
9729;SDS011;4904;49.152;11.004;2023-10-31T05:56:29;0.75;;;0.73;;
9729;SDS011;4904;49.152;11.004;2023-10-31T05:58:56;1.35;;;1.05;;
9729;SDS011;4904;49.152;11.004;2023-10-31T06:01:23;0.70;;;0.70;;
9729;SDS011;4904;49.152;11.004;2023-10-31T06:03:50;0.82;;;0.75;;
9729;SDS011;4904;49.152;11.004;2023-10-31T06:06:18;0.98;;;0.90;;
9729;SDS011;4904;49.152;11.004;2023-10-31T06:08:45;2.05;;;1.00;;
9729;SDS011;4904;49.152;11.004;2023-10-31T06:11:12;2.13;;;1.00;;
9729;SDS011;4904;49.152;11.004;2023-10-31T06:13:39;5.05;;;1.20;;
9729;SDS011;4904;49.152;11.004;2023-10-31T06:16:06;0.93;;;0.90;;
9729;SDS011;4904;49.152;11.004;2023-10-31T06:18:33;3.63;;;1.10;;
9729;SDS011;4904;49.152;11.004;2023-10-31T06:21:00;1.20;;;1.00;;
9729;SDS011;4904;49.152;11.004;2023-10-31T06:23:29;1.20;;;1.10;;
9729;SDS011;4904;49.152;11.004;2023-10-31T06:25:55;0.90;;;0.90;;
9729;SDS011;4904;49.152;11.004;2023-10-31T06:28:23;1.17;;;1.08;;
9729;SDS011;4904;49.152;11.004;2023-10-31T06:30:50;3.50;;;0.90;;
9729;SDS011;4904;49.152;11.004;2023-10-31T06:33:17;1.95;;;0.90;;
9729;SDS011;4904;49.152;11.004;2023-10-31T06:35:44;2.67;;;1.00;;
9729;SDS011;4904;49.152;11.004;2023-10-31T06:38:10;2.10;;;1.20;;
9729;SDS011;4904;49.152;11.004;2023-10-31T06:40:39;1.25;;;1.00;;
9729;SDS011;4904;49.152;11.004;2023-10-31T06:43:06;0.75;;;0.75;;
9729;SDS011;4904;49.152;11.004;2023-10-31T06:45:33;0.77;;;0.77;;
9729;SDS011;4904;49.152;11.004;2023-10-31T06:48:00;1.33;;;0.98;;
9729;SDS011;4904;49.152;11.004;2023-10-31T06:50:27;1.35;;;0.98;;
9729;SDS011;4904;49.152;11.004;2023-10-31T06:52:54;1.58;;;1.33;;
9729;SDS011;4904;49.152;11.004;2023-10-31T06:55:21;2.47;;;0.90;;
9729;SDS011;4904;49.152;11.004;2023-10-31T06:57:49;1.00;;;0.90;;
9729;SDS011;4904;49.152;11.004;2023-10-31T07:00:16;0.95;;;0.95;;
9729;SDS011;4904;49.152;11.004;2023-10-31T07:02:43;1.15;;;1.05;;
9729;SDS011;4904;49.152;11.004;2023-10-31T07:05:10;1.00;;;0.90;;
9729;SDS011;4904;49.152;11.004;2023-10-31T07:07:37;2.55;;;1.08;;
9729;SDS011;4904;49.152;11.004;2023-10-31T07:10:04;1.50;;;0.93;;
9729;SDS011;4904;49.152;11.004;2023-10-31T07:12:31;1.10;;;1.00;;
9729;SDS011;4904;49.152;11.004;2023-10-31T07:15:00;2.00;;;0.85;;
9729;SDS011;4904;49.152;11.004;2023-10-31T07:17:27;0.90;;;0.90;;
9729;SDS011;4904;49.152;11.004;2023-10-31T07:19:53;1.70;;;1.17;;
9729;SDS011;4904;49.152;11.004;2023-10-31T07:22:20;0.98;;;0.80;;
9729;SDS011;4904;49.152;11.004;2023-10-31T07:24:49;1.30;;;1.00;;
9729;SDS011;4904;49.152;11.004;2023-10-31T07:27:19;1.60;;;0.90;;
9729;SDS011;4904;49.152;11.004;2023-10-31T07:29:46;2.03;;;0.90;;
9729;SDS011;4904;49.152;11.004;2023-10-31T07:32:15;0.90;;;0.90;;
9729;SDS011;4904;49.152;11.004;2023-10-31T07:34:42;1.10;;;1.00;;
9729;SDS011;4904;49.152;11.004;2023-10-31T07:37:09;0.93;;;0.80;;
9729;SDS011;4904;49.152;11.004;2023-10-31T07:39:36;1.10;;;1.00;;
9729;SDS011;4904;49.152;11.004;2023-10-31T07:42:03;1.38;;;1.00;;
9729;SDS011;4904;49.152;11.004;2023-10-31T07:44:30;1.30;;;1.00;;
9729;SDS011;4904;49.152;11.004;2023-10-31T07:46:57;0.93;;;0.80;;
9729;SDS011;4904;49.152;11.004;2023-10-31T07:49:25;1.33;;;0.93;;
9729;SDS011;4904;49.152;11.004;2023-10-31T07:51:52;0.73;;;0.73;;
9729;SDS011;4904;49.152;11.004;2023-10-31T07:54:19;1.63;;;0.82;;
9729;SDS011;4904;49.152;11.004;2023-10-31T07:56:46;2.47;;;0.80;;
9729;SDS011;4904;49.152;11.004;2023-10-31T07:59:13;2.35;;;1.10;;
9729;SDS011;4904;49.152;11.004;2023-10-31T08:01:40;1.13;;;1.02;;
9729;SDS011;4904;49.152;11.004;2023-10-31T08:04:07;1.25;;;0.80;;
9729;SDS011;4904;49.152;11.004;2023-10-31T08:06:36;0.80;;;0.80;;
9729;SDS011;4904;49.152;11.004;2023-10-31T08:09:03;2.15;;;1.00;;
9729;SDS011;4904;49.152;11.004;2023-10-31T08:11:30;0.80;;;0.80;;
9729;SDS011;4904;49.152;11.004;2023-10-31T08:13:57;2.10;;;1.00;;
9729;SDS011;4904;49.152;11.004;2023-10-31T08:16:24;1.88;;;1.00;;
9729;SDS011;4904;49.152;11.004;2023-10-31T08:18:51;1.75;;;1.00;;
9729;SDS011;4904;49.152;11.004;2023-10-31T08:21:18;1.83;;;0.82;;
9729;SDS011;4904;49.152;11.004;2023-10-31T08:23:46;0.90;;;0.82;;
9729;SDS011;4904;49.152;11.004;2023-10-31T08:26:13;1.20;;;1.10;;
9729;SDS011;4904;49.152;11.004;2023-10-31T08:28:40;1.10;;;1.00;;
9729;SDS011;4904;49.152;11.004;2023-10-31T08:31:07;3.50;;;1.00;;
9729;SDS011;4904;49.152;11.004;2023-10-31T08:33:34;1.10;;;1.00;;
9729;SDS011;4904;49.152;11.004;2023-10-31T08:36:01;1.20;;;0.90;;
9729;SDS011;4904;49.152;11.004;2023-10-31T08:38:27;1.85;;;0.98;;
9729;SDS011;4904;49.152;11.004;2023-10-31T08:40:56;1.83;;;1.00;;
9729;SDS011;4904;49.152;11.004;2023-10-31T08:43:24;0.98;;;0.85;;
9729;SDS011;4904;49.152;11.004;2023-10-31T08:45:51;0.98;;;0.90;;
9729;SDS011;4904;49.152;11.004;2023-10-31T08:48:19;1.45;;;1.10;;
9729;SDS011;4904;49.152;11.004;2023-10-31T08:50:46;1.10;;;0.90;;
9729;SDS011;4904;49.152;11.004;2023-10-31T08:53:13;2.35;;;0.80;;
9729;SDS011;4904;49.152;11.004;2023-10-31T08:55:40;0.98;;;0.90;;
9729;SDS011;4904;49.152;11.004;2023-10-31T08:58:10;0.90;;;0.90;;
9729;SDS011;4904;49.152;11.004;2023-10-31T09:00:37;1.80;;;1.05;;
9729;SDS011;4904;49.152;11.004;2023-10-31T09:03:05;0.80;;;0.80;;
9729;SDS011;4904;49.152;11.004;2023-10-31T09:05:32;1.48;;;0.80;;
9729;SDS011;4904;49.152;11.004;2023-10-31T09:07:59;2.88;;;1.00;;
9729;SDS011;4904;49.152;11.004;2023-10-31T09:10:27;0.75;;;0.75;;
9729;SDS011;4904;49.152;11.004;2023-10-31T09:12:54;1.10;;;1.00;;
9729;SDS011;4904;49.152;11.004;2023-10-31T09:15:22;0.95;;;0.88;;
9729;SDS011;4904;49.152;11.004;2023-10-31T09:17:49;1.00;;;0.90;;
9729;SDS011;4904;49.152;11.004;2023-10-31T09:20:16;1.70;;;1.05;;
9729;SDS011;4904;49.152;11.004;2023-10-31T09:22:42;0.90;;;0.90;;
9729;SDS011;4904;49.152;11.004;2023-10-31T09:25:09;2.40;;;0.90;;
9729;SDS011;4904;49.152;11.004;2023-10-31T09:27:37;1.08;;;0.70;;
9729;SDS011;4904;49.152;11.004;2023-10-31T09:30:05;0.77;;;0.50;;
9729;SDS011;4904;49.152;11.004;2023-10-31T09:32:35;1.67;;;1.02;;
9729;SDS011;4904;49.152;11.004;2023-10-31T09:35:02;2.20;;;1.00;;
9729;SDS011;4904;49.152;11.004;2023-10-31T09:37:29;1.50;;;0.90;;
9729;SDS011;4904;49.152;11.004;2023-10-31T09:39:56;1.92;;;0.88;;
9729;SDS011;4904;49.152;11.004;2023-10-31T09:42:22;3.92;;;0.93;;
9729;SDS011;4904;49.152;11.004;2023-10-31T09:44:50;4.25;;;0.93;;
9729;SDS011;4904;49.152;11.004;2023-10-31T09:47:17;1.65;;;1.00;;
9729;SDS011;4904;49.152;11.004;2023-10-31T09:49:47;1.35;;;1.10;;
9729;SDS011;4904;49.152;11.004;2023-10-31T09:52:14;2.13;;;1.00;;
9729;SDS011;4904;49.152;11.004;2023-10-31T09:54:42;3.78;;;0.88;;
9729;SDS011;4904;49.152;11.004;2023-10-31T09:57:10;0.70;;;0.70;;
9729;SDS011;4904;49.152;11.004;2023-10-31T09:59:37;2.30;;;0.90;;
9729;SDS011;4904;49.152;11.004;2023-10-31T10:02:04;0.70;;;0.70;;
9729;SDS011;4904;49.152;11.004;2023-10-31T10:04:31;1.42;;;1.02;;
9729;SDS011;4904;49.152;11.004;2023-10-31T10:07:01;1.33;;;0.85;;
9729;SDS011;4904;49.152;11.004;2023-10-31T10:09:28;0.80;;;0.80;;
9729;SDS011;4904;49.152;11.004;2023-10-31T10:11:58;0.90;;;0.90;;
9729;SDS011;4904;49.152;11.004;2023-10-31T10:14:25;0.93;;;0.90;;
9729;SDS011;4904;49.152;11.004;2023-10-31T10:16:54;1.60;;;0.95;;
9729;SDS011;4904;49.152;11.004;2023-10-31T10:19:22;2.05;;;1.00;;
9729;SDS011;4904;49.152;11.004;2023-10-31T10:21:50;1.40;;;0.90;;
9729;SDS011;4904;49.152;11.004;2023-10-31T10:24:19;1.10;;;1.00;;
9729;SDS011;4904;49.152;11.004;2023-10-31T10:26:47;2.10;;;1.00;;
9729;SDS011;4904;49.152;11.004;2023-10-31T10:29:14;1.20;;;1.10;;
9729;SDS011;4904;49.152;11.004;2023-10-31T10:31:41;1.77;;;1.10;;
9729;SDS011;4904;49.152;11.004;2023-10-31T10:34:09;1.52;;;1.00;;
9729;SDS011;4904;49.152;11.004;2023-10-31T10:36:37;2.05;;;0.90;;
9729;SDS011;4904;49.152;11.004;2023-10-31T10:39:06;1.25;;;0.93;;
9729;SDS011;4904;49.152;11.004;2023-10-31T10:41:35;1.60;;;1.00;;
9729;SDS011;4904;49.152;11.004;2023-10-31T10:44:06;1.83;;;1.20;;
9729;SDS011;4904;49.152;11.004;2023-10-31T10:46:34;2.35;;;1.13;;
9729;SDS011;4904;49.152;11.004;2023-10-31T10:49:03;1.35;;;1.02;;
9729;SDS011;4904;49.152;11.004;2023-10-31T10:51:38;1.23;;;1.10;;
9729;SDS011;4904;49.152;11.004;2023-10-31T10:54:11;1.65;;;1.00;;
9729;SDS011;4904;49.152;11.004;2023-10-31T10:56:49;1.95;;;0.73;;
9729;SDS011;4904;49.152;11.004;2023-10-31T10:59:23;1.23;;;1.10;;
9729;SDS011;4904;49.152;11.004;2023-10-31T11:02:02;2.78;;;1.30;;
9729;SDS011;4904;49.152;11.004;2023-10-31T11:04:32;2.13;;;0.95;;
9729;SDS011;4904;49.152;11.004;2023-10-31T11:07:01;1.10;;;1.00;;
9729;SDS011;4904;49.152;11.004;2023-10-31T11:09:29;1.27;;;1.17;;
9729;SDS011;4904;49.152;11.004;2023-10-31T11:11:58;2.97;;;1.08;;
9729;SDS011;4904;49.152;11.004;2023-10-31T11:14:27;2.85;;;1.10;;
9729;SDS011;4904;49.152;11.004;2023-10-31T11:16:55;1.98;;;1.20;;
9729;SDS011;4904;49.152;11.004;2023-10-31T11:19:27;2.20;;;1.00;;
9729;SDS011;4904;49.152;11.004;2023-10-31T11:21:55;1.67;;;1.05;;
9729;SDS011;4904;49.152;11.004;2023-10-31T11:24:26;2.15;;;1.08;;
9729;SDS011;4904;49.152;11.004;2023-10-31T11:26:59;3.35;;;1.30;;
9729;SDS011;4904;49.152;11.004;2023-10-31T11:29:29;2.80;;;1.10;;
9729;SDS011;4904;49.152;11.004;2023-10-31T11:31:57;1.70;;;1.10;;
9729;SDS011;4904;49.152;11.004;2023-10-31T11:34:26;1.77;;;1.20;;
9729;SDS011;4904;49.152;11.004;2023-10-31T11:36:54;2.50;;;1.35;;
9729;SDS011;4904;49.152;11.004;2023-10-31T11:42:46;2.60;;;1.20;;
9729;SDS011;4904;49.152;11.004;2023-10-31T11:45:23;2.90;;;1.17;;
9729;SDS011;4904;49.152;11.004;2023-10-31T11:47:53;3.47;;;1.27;;
9729;SDS011;4904;49.152;11.004;2023-10-31T11:50:20;1.33;;;1.13;;
9729;SDS011;4904;49.152;11.004;2023-10-31T11:52:58;1.45;;;0.95;;
9729;SDS011;4904;49.152;11.004;2023-10-31T11:55:25;1.73;;;1.02;;
9729;SDS011;4904;49.152;11.004;2023-10-31T11:57:54;1.30;;;1.10;;
9729;SDS011;4904;49.152;11.004;2023-10-31T12:00:21;1.35;;;1.02;;
9729;SDS011;4904;49.152;11.004;2023-10-31T12:02:58;2.90;;;1.17;;
9729;SDS011;4904;49.152;11.004;2023-10-31T12:05:26;2.63;;;1.33;;
9729;SDS011;4904;49.152;11.004;2023-10-31T12:07:53;1.40;;;1.10;;
9729;SDS011;4904;49.152;11.004;2023-10-31T12:10:22;3.17;;;1.20;;
9729;SDS011;4904;49.152;11.004;2023-10-31T12:12:50;1.45;;;1.30;;
9729;SDS011;4904;49.152;11.004;2023-10-31T12:15:18;2.38;;;1.30;;
9729;SDS011;4904;49.152;11.004;2023-10-31T12:17:45;2.92;;;1.20;;
9729;SDS011;4904;49.152;11.004;2023-10-31T12:20:12;4.45;;;1.10;;
9729;SDS011;4904;49.152;11.004;2023-10-31T12:22:41;3.60;;;1.48;;
9729;SDS011;4904;49.152;11.004;2023-10-31T12:25:09;2.67;;;1.27;;
9729;SDS011;4904;49.152;11.004;2023-10-31T12:27:42;3.85;;;1.58;;
9729;SDS011;4904;49.152;11.004;2023-10-31T12:30:11;3.08;;;1.70;;
9729;SDS011;4904;49.152;11.004;2023-10-31T12:32:41;3.15;;;0.95;;
9729;SDS011;4904;49.152;11.004;2023-10-31T12:35:08;2.00;;;1.30;;
9729;SDS011;4904;49.152;11.004;2023-10-31T12:37:41;1.30;;;1.20;;
9729;SDS011;4904;49.152;11.004;2023-10-31T12:40:11;3.50;;;1.17;;
9729;SDS011;4904;49.152;11.004;2023-10-31T12:42:42;1.40;;;1.10;;
9729;SDS011;4904;49.152;11.004;2023-10-31T12:45:09;4.07;;;1.90;;
9729;SDS011;4904;49.152;11.004;2023-10-31T12:47:37;3.75;;;1.10;;
9729;SDS011;4904;49.152;11.004;2023-10-31T12:50:07;2.92;;;1.27;;
9729;SDS011;4904;49.152;11.004;2023-10-31T12:52:45;3.60;;;1.50;;
9729;SDS011;4904;49.152;11.004;2023-10-31T12:55:13;2.90;;;1.25;;
9729;SDS011;4904;49.152;11.004;2023-10-31T12:57:41;2.75;;;1.08;;
9729;SDS011;4904;49.152;11.004;2023-10-31T13:00:09;3.25;;;1.55;;
9729;SDS011;4904;49.152;11.004;2023-10-31T13:02:38;4.20;;;1.50;;
9729;SDS011;4904;49.152;11.004;2023-10-31T13:05:11;4.00;;;1.02;;
9729;SDS011;4904;49.152;11.004;2023-10-31T13:07:39;3.00;;;1.27;;
9729;SDS011;4904;49.152;11.004;2023-10-31T13:10:06;2.95;;;1.30;;
9729;SDS011;4904;49.152;11.004;2023-10-31T13:12:35;4.13;;;1.30;;
9729;SDS011;4904;49.152;11.004;2023-10-31T13:15:02;4.68;;;1.10;;
9729;SDS011;4904;49.152;11.004;2023-10-31T13:17:30;2.63;;;1.38;;
9729;SDS011;4904;49.152;11.004;2023-10-31T13:19:58;3.78;;;1.52;;
9729;SDS011;4904;49.152;11.004;2023-10-31T13:22:26;3.88;;;1.65;;
9729;SDS011;4904;49.152;11.004;2023-10-31T13:24:53;3.75;;;1.27;;
9729;SDS011;4904;49.152;11.004;2023-10-31T13:27:20;2.45;;;1.42;;
9729;SDS011;4904;49.152;11.004;2023-10-31T13:29:47;3.13;;;1.40;;
9729;SDS011;4904;49.152;11.004;2023-10-31T13:32:15;1.83;;;1.25;;
9729;SDS011;4904;49.152;11.004;2023-10-31T13:34:42;3.13;;;1.40;;
9729;SDS011;4904;49.152;11.004;2023-10-31T13:37:09;2.95;;;1.25;;
9729;SDS011;4904;49.152;11.004;2023-10-31T13:39:37;3.33;;;1.50;;
9729;SDS011;4904;49.152;11.004;2023-10-31T13:42:04;3.63;;;1.30;;
9729;SDS011;4904;49.152;11.004;2023-10-31T13:44:35;4.65;;;1.30;;
9729;SDS011;4904;49.152;11.004;2023-10-31T13:47:01;3.85;;;1.48;;
9729;SDS011;4904;49.152;11.004;2023-10-31T13:49:28;3.63;;;1.50;;
9729;SDS011;4904;49.152;11.004;2023-10-31T13:51:55;5.10;;;1.60;;
9729;SDS011;4904;49.152;11.004;2023-10-31T13:54:22;1.55;;;1.13;;
9729;SDS011;4904;49.152;11.004;2023-10-31T13:56:50;3.70;;;1.30;;
9729;SDS011;4904;49.152;11.004;2023-10-31T13:59:17;3.35;;;1.30;;
9729;SDS011;4904;49.152;11.004;2023-10-31T14:01:44;1.67;;;1.15;;
9729;SDS011;4904;49.152;11.004;2023-10-31T14:04:12;3.53;;;1.27;;
9729;SDS011;4904;49.152;11.004;2023-10-31T14:06:39;3.80;;;1.40;;
9729;SDS011;4904;49.152;11.004;2023-10-31T14:09:07;3.75;;;1.35;;
9729;SDS011;4904;49.152;11.004;2023-10-31T14:11:35;1.67;;;1.02;;
9729;SDS011;4904;49.152;11.004;2023-10-31T14:14:04;3.67;;;1.15;;
9729;SDS011;4904;49.152;11.004;2023-10-31T14:16:34;3.13;;;1.42;;
9729;SDS011;4904;49.152;11.004;2023-10-31T14:19:01;4.82;;;1.48;;
9729;SDS011;4904;49.152;11.004;2023-10-31T14:21:28;2.97;;;1.30;;
9729;SDS011;4904;49.152;11.004;2023-10-31T14:23:55;3.17;;;1.17;;
9729;SDS011;4904;49.152;11.004;2023-10-31T14:26:22;3.25;;;1.60;;
9729;SDS011;4904;49.152;11.004;2023-10-31T14:28:49;3.65;;;2.00;;
9729;SDS011;4904;49.152;11.004;2023-10-31T14:31:18;2.78;;;1.35;;
9729;SDS011;4904;49.152;11.004;2023-10-31T14:33:45;4.07;;;1.35;;
9729;SDS011;4904;49.152;11.004;2023-10-31T14:36:13;3.50;;;1.35;;
9729;SDS011;4904;49.152;11.004;2023-10-31T14:38:40;3.88;;;1.27;;
9729;SDS011;4904;49.152;11.004;2023-10-31T14:41:08;2.03;;;1.30;;
9729;SDS011;4904;49.152;11.004;2023-10-31T14:43:35;2.95;;;1.42;;
9729;SDS011;4904;49.152;11.004;2023-10-31T14:46:03;2.60;;;1.20;;
9729;SDS011;4904;49.152;11.004;2023-10-31T14:48:33;3.00;;;1.13;;
9729;SDS011;4904;49.152;11.004;2023-10-31T14:51:00;2.00;;;1.10;;
9729;SDS011;4904;49.152;11.004;2023-10-31T14:53:27;2.40;;;1.30;;
9729;SDS011;4904;49.152;11.004;2023-10-31T14:55:55;2.22;;;1.25;;
9729;SDS011;4904;49.152;11.004;2023-10-31T14:58:22;3.42;;;1.33;;
9729;SDS011;4904;49.152;11.004;2023-10-31T15:00:49;4.68;;;1.60;;
9729;SDS011;4904;49.152;11.004;2023-10-31T15:03:16;3.83;;;1.33;;
9729;SDS011;4904;49.152;11.004;2023-10-31T15:05:44;2.90;;;1.58;;